Time;durP1;ratioP1;P1;durP2;ratioP2;P2;SDS_P1;SDS_P2;PMS_P1;PMS_P2;Temp;Humidity;BMP_temperature;BMP_pressure;BME280_temperature;BME280_humidity;BME280_pressure;Samples;Min_cycle;Max_cycle;Signal;HPM_P1;HPM_P2
2022/12/22 03:28:17;;;;;;;7.07;6.60;;;9.10;99.90;;;;;;5113208;28;20171;-69
2022/12/22 03:30:43;;;;;;;6.40;6.00;;;9.10;99.90;;;;;;5099010;28;20209;-68
2022/12/22 03:33:08;;;;;;;6.97;6.57;;;9.20;99.90;;;;;;5092824;28;20641;-69
2022/12/22 03:35:34;;;;;;;6.07;5.67;;;9.20;99.90;;;;;;5103676;28;20260;-69
2022/12/22 03:38:02;;;;;;;6.70;6.20;;;9.20;99.90;;;;;;5113251;28;20173;-69
2022/12/22 03:40:29;;;;;;;9.37;8.83;;;9.20;99.90;;;;;;5102788;28;20712;-68
2022/12/22 03:48:22;;;;;;;6.70;6.30;;;9.20;99.90;;;;;;5102724;28;20184;-70
2022/12/22 03:50:48;;;;;;;6.40;5.80;;;9.20;99.90;;;;;;5091944;28;20264;-69
2022/12/22 03:53:13;;;;;;;6.93;6.53;;;9.20;99.90;;;;;;5099902;28;20173;-69
2022/12/22 03:55:39;;;;;;;6.83;6.33;;;9.30;99.90;;;;;;5112314;28;20571;-69
2022/12/22 03:58:05;;;;;;;6.80;6.40;;;9.30;99.90;;;;;;5106499;28;20170;-69
2022/12/22 04:00:30;;;;;;;7.03;6.33;;;9.30;99.90;;;;;;5091686;28;20208;-69
2022/12/22 04:02:57;;;;;;;6.83;6.33;;;9.30;99.90;;;;;;5095889;28;20168;-69
2022/12/22 04:05:23;;;;;;;6.00;5.63;;;9.40;99.90;;;;;;5112341;28;20539;-69
2022/12/22 04:07:49;;;;;;;6.40;5.90;;;9.40;99.90;;;;;;5110782;28;20173;-69
2022/12/22 04:12:58;;;;;;;5.73;5.43;;;9.40;99.90;;;;;;5109210;28;20204;-69
2022/12/22 04:15:30;;;;;;;5.80;5.23;;;9.40;99.90;;;;;;5092020;28;20177;-69
2022/12/22 04:17:56;;;;;;;5.67;5.37;;;9.50;99.90;;;;;;5109424;28;20675;-69
2022/12/22 04:20:25;;;;;;;6.83;6.43;;;9.50;99.90;;;;;;5111971;28;20208;-68
2022/12/22 04:22:51;;;;;;;7.80;5.30;;;9.60;99.90;;;;;;5095018;28;20200;-69
2022/12/22 04:25:17;;;;;;;5.87;5.47;;;9.60;99.90;;;;;;5091961;28;20169;-69
2022/12/22 04:27:42;;;;;;;6.00;5.60;;;9.60;99.90;;;;;;5106809;28;20173;-68
2022/12/22 04:30:09;;;;;;;5.80;5.50;;;9.70;99.90;;;;;;5111804;28;20215;-68
2022/12/22 04:32:34;;;;;;;7.17;5.93;;;9.80;99.90;;;;;;5098747;28;20557;-69
2022/12/22 04:35:00;;;;;;;10.10;6.40;;;9.80;99.90;;;;;;5092027;28;20181;-68
2022/12/22 04:37:26;;;;;;;6.47;5.87;;;9.80;99.90;;;;;;5102747;28;20177;-69
2022/12/22 04:39:51;;;;;;;5.80;5.40;;;9.80;99.90;;;;;;5111648;28;20203;-70
2022/12/22 04:42:17;;;;;;;5.67;5.30;;;9.80;99.90;;;;;;5103035;28;20536;-69
2022/12/22 04:44:42;;;;;;;8.87;6.10;;;9.80;99.90;;;;;;5092182;28;20215;-68
2022/12/22 04:47:08;;;;;;;6.57;6.07;;;9.80;99.90;;;;;;5099256;28;20173;-69
2022/12/22 04:49:34;;;;;;;6.80;6.20;;;9.80;99.90;;;;;;5112376;28;20179;-70
2022/12/22 04:51:59;;;;;;;7.03;6.50;;;9.90;99.90;;;;;;5107146;28;20193;-69
2022/12/22 04:54:25;;;;;;;6.60;6.00;;;9.80;99.90;;;;;;5092603;28;20256;-69
2022/12/22 04:56:51;;;;;;;7.10;6.50;;;9.80;99.90;;;;;;5093859;28;20179;-70
2022/12/22 04:59:17;;;;;;;5.80;5.50;;;9.80;99.90;;;;;;5092176;28;20282;-68
2022/12/22 05:01:42;;;;;;;6.03;5.60;;;9.80;99.90;;;;;;5093731;28;20658;-69
2022/12/22 05:04:08;;;;;;;6.00;5.70;;;9.80;99.90;;;;;;5112442;28;20184;-69
2022/12/22 05:06:33;;;;;;;5.53;5.17;;;9.70;99.90;;;;;;5111870;28;20256;-69
2022/12/22 05:08:59;;;;;;;6.17;5.73;;;9.80;99.90;;;;;;5094039;28;20177;-69
2022/12/22 05:11:24;;;;;;;6.13;5.73;;;9.80;99.90;;;;;;5094905;28;20780;-69
2022/12/22 05:13:50;;;;;;;6.83;6.13;;;9.90;99.90;;;;;;5113465;28;20183;-69
2022/12/22 05:16:16;;;;;;;8.73;6.57;;;9.90;99.90;;;;;;5115694;28;20207;-69
2022/12/22 05:18:43;;;;;;;6.00;5.57;;;9.90;99.90;;;;;;5098882;28;20559;-69
2022/12/22 05:21:20;;;;;;;6.13;5.63;;;10.00;99.90;;;;;;5094773;28;20467;-69
2022/12/22 05:23:46;;;;;;;7.50;6.63;;;9.90;99.90;;;;;;5111040;28;20180;-69
2022/12/22 05:26:13;;;;;;;7.30;6.70;;;10.00;99.90;;;;;;5102538;28;20177;-69
2022/12/22 05:28:40;;;;;;;7.33;6.73;;;10.00;99.90;;;;;;5094983;28;20252;-70
2022/12/22 05:31:13;;;;;;;6.83;6.33;;;10.00;99.90;;;;;;5087146;28;20205;-69
2022/12/22 05:33:39;;;;;;;6.30;5.80;;;10.00;99.90;;;;;;5115258;28;20176;-69
2022/12/22 05:36:05;;;;;;;6.73;6.30;;;10.00;99.90;;;;;;5104837;28;20658;-70
2022/12/22 05:38:30;;;;;;;6.53;6.03;;;10.10;99.90;;;;;;5094767;28;20223;-69
2022/12/22 05:40:56;;;;;;;6.60;6.10;;;10.10;99.90;;;;;;5102858;28;20199;-69
2022/12/22 05:43:21;;;;;;;6.57;6.00;;;10.10;99.90;;;;;;5115189;28;20529;-69
2022/12/22 05:45:47;;;;;;;8.13;7.33;;;10.10;99.90;;;;;;5108571;28;20223;-69
2022/12/22 05:48:13;;;;;;;7.43;6.83;;;10.10;99.90;;;;;;5093642;28;20219;-69
2022/12/22 05:50:38;;;;;;;7.37;6.80;;;10.20;99.90;;;;;;5098520;28;20239;-69
2022/12/22 05:53:05;;;;;;;7.87;7.27;;;10.20;99.90;;;;;;5114903;28;20169;-68
2022/12/22 05:55:31;;;;;;;7.13;6.60;;;10.20;99.90;;;;;;5111945;28;20208;-69
2022/12/22 05:58:00;;;;;;;7.30;6.67;;;10.20;99.90;;;;;;5094563;28;20201;-69
2022/12/22 06:00:27;;;;;;;7.37;6.77;;;10.20;99.90;;;;;;5095590;28;20208;-69
2022/12/22 06:02:53;;;;;;;7.13;6.63;;;10.20;99.90;;;;;;5114812;28;20193;-68
2022/12/22 06:05:18;;;;;;;7.40;6.80;;;10.20;99.90;;;;;;5114413;28;20556;-69
2022/12/22 06:07:44;;;;;;;7.07;6.57;;;10.20;99.90;;;;;;5094419;28;20173;-69
2022/12/22 06:10:11;;;;;;;6.00;5.60;;;10.20;99.90;;;;;;5093984;28;20189;-68
2022/12/22 06:12:37;;;;;;;7.30;6.70;;;10.20;99.90;;;;;;5093829;28;20234;-68
2022/12/22 06:15:03;;;;;;;6.77;6.20;;;10.30;99.90;;;;;;5096291;28;20168;-70
2022/12/22 06:17:28;;;;;;;6.50;6.10;;;10.30;99.90;;;;;;5097078;28;20177;-68
2022/12/22 06:19:54;;;;;;;7.73;7.10;;;10.30;99.90;;;;;;5092321;28;20205;-68
2022/12/22 06:22:20;;;;;;;7.60;6.90;;;10.30;99.90;;;;;;5104986;28;20201;-69
2022/12/22 06:24:45;;;;;;;6.17;5.73;;;10.30;99.90;;;;;;5114339;28;20537;-70
2022/12/22 06:27:11;;;;;;;7.10;6.50;;;10.30;99.90;;;;;;5114519;28;20165;-69
2022/12/22 06:29:37;;;;;;;6.13;5.73;;;10.30;99.90;;;;;;5114164;28;20173;-69
2022/12/22 06:32:04;;;;;;;6.97;6.43;;;10.30;99.90;;;;;;5113570;28;20289;-69
2022/12/22 06:34:29;;;;;;;7.77;6.40;;;10.30;99.90;;;;;;5114094;28;20185;-69
2022/12/22 06:36:55;;;;;;;8.53;7.60;;;10.30;99.90;;;;;;5104474;28;20552;-69
2022/12/22 06:39:21;;;;;;;7.67;6.97;;;10.30;99.90;;;;;;5098393;28;20261;-68
2022/12/22 06:44:31;;;;;;;7.77;7.07;;;10.20;99.90;;;;;;5107518;28;20207;-69
2022/12/22 06:46:56;;;;;;;7.43;6.83;;;10.10;99.90;;;;;;5093645;28;20169;-68
2022/12/22 06:49:22;;;;;;;6.97;6.37;;;10.10;99.90;;;;;;5096110;28;20634;-68
2022/12/22 06:51:48;;;;;;;7.07;6.47;;;10.10;99.90;;;;;;5111800;28;20211;-68
2022/12/22 06:54:13;;;;;;;7.03;6.53;;;10.10;99.90;;;;;;5113811;28;20219;-69
2022/12/22 06:56:39;;;;;;;8.00;7.33;;;10.10;99.90;;;;;;5112121;28;20692;-68
2022/12/22 06:59:05;;;;;;;9.43;7.50;;;10.10;99.90;;;;;;5093072;28;20205;-67
2022/12/22 07:01:30;;;;;;;7.47;6.87;;;10.10;99.90;;;;;;5092756;28;20246;-65
2022/12/22 07:03:56;;;;;;;7.40;6.80;;;10.10;99.90;;;;;;5091715;28;20185;-66
2022/12/22 07:06:22;;;;;;;7.23;6.63;;;10.10;99.90;;;;;;5092674;28;20181;-67
2022/12/22 07:08:48;;;;;;;7.50;6.90;;;10.10;99.90;;;;;;5110952;28;20649;-66
2022/12/22 07:11:14;;;;;;;7.13;6.60;;;10.10;99.90;;;;;;5112630;28;20201;-66
2022/12/22 07:13:40;;;;;;;7.13;6.63;;;10.10;99.90;;;;;;5096189;28;20178;-67
2022/12/22 07:16:07;;;;;;;6.93;6.40;;;10.00;99.90;;;;;;5092751;28;20176;-66
2022/12/22 07:18:36;;;;;;;7.77;7.13;;;10.00;99.90;;;;;;5089222;28;20181;-67
2022/12/22 07:21:04;;;;;;;7.03;6.43;;;10.00;99.90;;;;;;5112634;28;20192;-67
2022/12/22 07:23:30;;;;;;;7.57;6.97;;;10.00;99.90;;;;;;5098498;28;20527;-67
2022/12/22 07:25:57;;;;;;;8.67;7.87;;;10.00;99.90;;;;;;5092545;28;20181;-67
2022/12/22 07:28:22;;;;;;;7.57;6.97;;;10.00;99.90;;;;;;5104644;28;20181;-67
2022/12/22 07:30:49;;;;;;;7.30;6.67;;;10.00;99.90;;;;;;5112040;28;20218;-67
2022/12/22 07:33:15;;;;;;;10.10;9.20;;;10.10;99.90;;;;;;5101939;28;20531;-67
2022/12/22 07:35:41;;;;;;;8.00;7.40;;;10.00;99.90;;;;;;5092124;28;20177;-67
2022/12/22 07:38:06;;;;;;;12.47;10.70;;;10.00;99.90;;;;;;5100478;28;20264;-67
2022/12/22 07:40:32;;;;;;;23.33;12.57;;;10.10;99.90;;;;;;5112092;28;20313;-67
2022/12/22 07:42:59;;;;;;;7.37;6.87;;;10.10;99.90;;;;;;5111113;28;20177;-67
2022/12/22 07:45:26;;;;;;;16.60;10.40;;;10.10;99.90;;;;;;5112806;28;20169;-67
2022/12/22 07:47:58;;;;;;;7.63;7.00;;;10.10;99.90;;;;;;5105680;28;20200;-66
2022/12/22 07:50:23;;;;;;;8.60;7.83;;;10.10;99.90;;;;;;5092088;28;20197;-67
2022/12/22 07:52:57;;;;;;;8.23;7.47;;;10.10;99.90;;;;;;5082444;28;20347;-67
2022/12/22 07:55:24;;;;;;;7.33;6.67;;;10.10;99.90;;;;;;5112647;28;20173;-67
2022/12/22 07:57:50;;;;;;;7.93;7.23;;;10.10;99.90;;;;;;5110526;28;20177;-67
2022/12/22 08:00:17;;;;;;;7.97;7.27;;;10.10;99.90;;;;;;5111949;28;20701;-67
2022/12/22 08:02:51;;;;;;;7.17;6.50;;;10.10;99.90;;;;;;5105414;28;20207;-67
2022/12/22 08:05:17;;;;;;;6.07;5.67;;;10.10;99.90;;;;;;5091876;28;20696;-67
2022/12/22 08:07:43;;;;;;;8.57;7.77;;;10.00;99.90;;;;;;5097953;28;20723;-67
2022/12/22 08:10:10;;;;;;;8.60;7.70;;;10.10;99.90;;;;;;5111751;28;20193;-67
2022/12/22 08:12:35;;;;;;;10.77;9.77;;;10.00;99.90;;;;;;5107366;28;20200;-67
2022/12/22 08:15:01;;;;;;;11.47;8.60;;;10.10;99.90;;;;;;5090085;28;20983;-67
2022/12/22 08:17:27;;;;;;;8.80;8.00;;;10.10;99.90;;;;;;5110115;28;20172;-67
2022/12/22 08:19:53;;;;;;;11.57;8.77;;;10.10;99.90;;;;;;5111601;28;20204;-67
2022/12/22 08:22:22;;;;;;;10.00;7.50;;;10.10;99.90;;;;;;5094815;28;20208;-67
2022/12/22 08:24:52;;;;;;;10.70;9.43;;;10.10;99.90;;;;;;5092679;28;20601;-67
2022/12/22 08:27:23;;;;;;;11.67;8.97;;;10.10;99.90;;;;;;5107803;28;20177;-66
2022/12/22 08:29:53;;;;;;;11.00;9.47;;;10.10;99.90;;;;;;5111425;28;20637;-67
2022/12/22 08:32:19;;;;;;;11.13;9.37;;;10.20;99.90;;;;;;5097353;28;20242;-66
2022/12/22 08:34:44;;;;;;;10.53;9.43;;;10.10;99.90;;;;;;5092392;28;20173;-66
2022/12/22 08:37:14;;;;;;;12.70;9.57;;;10.10;99.90;;;;;;5093264;28;20416;-66
2022/12/22 08:39:42;;;;;;;12.27;9.97;;;10.10;99.90;;;;;;5092885;28;20606;-66
2022/12/22 08:42:10;;;;;;;13.13;10.37;;;10.10;99.90;;;;;;5092415;28;20249;-66
2022/12/22 08:44:37;;;;;;;10.90;9.90;;;10.10;99.90;;;;;;5097692;28;20256;-66
2022/12/22 08:47:04;;;;;;;14.10;9.93;;;10.10;99.90;;;;;;5107235;28;20175;-66
2022/12/22 08:49:29;;;;;;;14.23;10.23;;;10.10;99.90;;;;;;5094385;28;20177;-66
2022/12/22 08:51:55;;;;;;;16.27;11.30;;;10.10;99.90;;;;;;5097455;28;20193;-66
2022/12/22 08:54:21;;;;;;;13.23;10.23;;;10.10;99.90;;;;;;5096604;28;20169;-66
2022/12/22 08:56:47;;;;;;;15.27;10.67;;;10.20;99.90;;;;;;5103731;28;20545;-66
2022/12/22 08:59:13;;;;;;;14.93;11.87;;;10.20;99.90;;;;;;5116430;28;20449;-66
2022/12/22 09:01:45;;;;;;;14.97;10.77;;;10.20;99.90;;;;;;5109756;28;20201;-66
2022/12/22 09:04:15;;;;;;;15.67;11.10;;;10.20;99.90;;;;;;5096164;28;20265;-66
2022/12/22 09:06:41;;;;;;;17.67;11.10;;;10.20;99.90;;;;;;5101573;28;20701;-66
2022/12/22 09:09:08;;;;;;;21.07;14.03;;;10.20;99.90;;;;;;5097994;28;20212;-66
2022/12/22 09:11:34;;;;;;;15.80;11.07;;;10.10;99.90;;;;;;5111291;28;20201;-66
2022/12/22 09:14:01;;;;;;;17.40;12.40;;;10.10;99.90;;;;;;5096179;28;20239;-66
2022/12/22 09:16:29;;;;;;;24.10;14.03;;;10.10;99.90;;;;;;5098675;28;20173;-66
2022/12/22 09:18:55;;;;;;;15.73;11.67;;;10.10;99.90;;;;;;5115965;28;20195;-66
2022/12/22 09:21:22;;;;;;;23.17;13.00;;;10.10;99.90;;;;;;5099980;28;20201;-66
2022/12/22 09:23:48;;;;;;;22.27;12.77;;;10.20;99.90;;;;;;5115884;28;20200;-67
2022/12/22 09:26:16;;;;;;;16.33;10.77;;;10.20;99.90;;;;;;5115226;28;20219;-66
2022/12/22 09:28:42;;;;;;;21.63;13.10;;;10.20;99.90;;;;;;5104587;28;20638;-66
2022/12/22 09:31:09;;;;;;;18.10;12.80;;;10.20;99.90;;;;;;5095033;28;20553;-66
2022/12/22 09:33:35;;;;;;;19.17;11.37;;;10.20;99.90;;;;;;5114435;28;20177;-66
2022/12/22 09:36:11;;;;;;;17.53;10.47;;;10.30;99.90;;;;;;5115459;28;20169;-66
2022/12/22 09:38:38;;;;;;;11.83;9.27;;;10.30;99.90;;;;;;5114718;28;20169;-66
2022/12/22 09:41:16;;;;;;;13.50;10.23;;;10.30;99.90;;;;;;5098485;28;20205;-66
2022/12/22 09:43:42;;;;;;;15.90;10.37;;;10.30;99.90;;;;;;5109497;28;20658;-66
2022/12/22 09:46:22;;;;;;;15.70;10.03;;;10.30;99.90;;;;;;5115649;28;20265;-66
2022/12/22 09:48:48;;;;;;;15.23;11.70;;;10.30;99.90;;;;;;5099233;28;20177;-66
2022/12/22 09:51:16;;;;;;;15.73;10.97;;;10.30;99.90;;;;;;5094757;28;20216;-67
2022/12/22 09:53:43;;;;;;;15.23;11.03;;;10.30;99.90;;;;;;5092592;28;20185;-66
2022/12/22 09:56:15;;;;;;;14.13;9.40;;;10.30;99.90;;;;;;5076816;28;20173;-66
2022/12/22 09:58:41;;;;;;;15.80;10.67;;;10.30;99.90;;;;;;5076766;28;20223;-66
2022/12/22 10:01:23;;;;;;;17.00;10.47;;;10.30;99.90;;;;;;5094559;28;20193;-66
2022/12/22 10:04:14;;;;;;;15.13;10.50;;;10.30;99.90;;;;;;5089998;28;20255;-66
2022/12/22 10:06:59;;;;;;;15.90;11.13;;;10.30;99.90;;;;;;5115040;28;20226;-66
2022/12/22 10:09:27;;;;;;;18.67;11.63;;;10.30;99.90;;;;;;5094619;28;20185;-66
2022/12/22 10:11:56;;;;;;;18.30;10.73;;;10.30;99.90;;;;;;5098803;28;20325;-66
2022/12/22 10:14:36;;;;;;;15.30;11.03;;;10.30;99.90;;;;;;5114939;28;20638;-66
2022/12/22 10:17:27;;;;;;;20.10;11.70;;;10.40;99.90;;;;;;5095146;28;20719;-66
2022/12/22 10:20:19;;;;;;;21.20;11.83;;;10.40;99.90;;;;;;5094333;28;20200;-67
2022/12/22 10:23:26;;;;;;;17.17;11.20;;;10.40;99.90;;;;;;5114331;28;20252;-66
2022/12/22 10:25:55;;;;;;;19.43;10.60;;;10.30;99.90;;;;;;5086336;28;20553;-66
2022/12/22 10:28:27;;;;;;;15.83;11.13;;;10.30;99.90;;;;;;5094056;28;20256;-66
2022/12/22 10:31:13;;;;;;;21.77;11.60;;;10.30;99.90;;;;;;5093732;28;20757;-66
2022/12/22 10:33:40;;;;;;;22.40;12.60;;;10.30;99.90;;;;;;5099149;28;20729;-66
2022/12/22 10:36:06;;;;;;;19.97;12.37;;;10.30;99.90;;;;;;5114501;28;20205;-66
2022/12/22 10:38:34;;;;;;;17.90;13.23;;;10.20;99.90;;;;;;5095708;28;20215;-66
2022/12/22 10:41:16;;;;;;;22.80;12.17;;;10.20;99.90;;;;;;5093860;28;20193;-66
2022/12/22 10:43:57;;;;;;;16.53;10.80;;;10.20;99.90;;;;;;5111863;28;20271;-66
2022/12/22 10:46:41;;;;;;;18.47;12.00;;;10.20;99.90;;;;;;5102727;28;20166;-66
2022/12/22 10:49:12;;;;;;;22.80;11.83;;;10.10;99.90;;;;;;5092709;28;20203;-66
2022/12/22 10:51:40;;;;;;;13.50;11.23;;;10.20;99.90;;;;;;5104985;28;20622;-66
2022/12/22 10:54:06;;;;;;;20.70;11.07;;;10.10;99.90;;;;;;5113638;28;20168;-66
2022/12/22 10:56:33;;;;;;;22.30;12.07;;;10.20;99.90;;;;;;5102869;28;20203;-66
2022/12/22 10:59:02;;;;;;;19.33;11.77;;;10.20;99.90;;;;;;5075005;28;20670;-66
2022/12/22 11:01:34;;;;;;;18.87;11.17;;;10.30;99.90;;;;;;5093236;28;20490;-66
2022/12/22 11:04:26;;;;;;;19.17;10.40;;;10.30;99.90;;;;;;5093168;28;20272;-65
2022/12/22 11:06:54;;;;;;;24.83;11.60;;;10.40;99.90;;;;;;5104003;28;20172;-66
2022/12/22 11:09:21;;;;;;;19.97;11.30;;;10.60;99.90;;;;;;5112912;28;20590;-66
2022/12/22 11:12:01;;;;;;;19.63;11.53;;;10.90;99.90;;;;;;5097841;28;20204;-66
2022/12/22 11:14:45;;;;;;;20.30;11.93;;;11.30;99.90;;;;;;5092741;28;20193;-65
2022/12/22 11:17:29;;;;;;;15.93;10.13;;;11.60;99.90;;;;;;5094176;28;20173;-66
2022/12/22 11:20:29;;;;;;;12.03;8.97;;;12.00;99.90;;;;;;5092773;28;20189;-66
2022/12/22 11:23:19;;;;;;;10.43;8.90;;;12.00;99.90;;;;;;5076887;28;20546;-66
2022/12/22 11:25:51;;;;;;;8.87;7.97;;;11.90;99.90;;;;;;5092665;28;20182;-66
2022/12/22 11:28:32;;;;;;;12.80;8.83;;;11.60;99.90;;;;;;5092914;28;20184;-66
2022/12/22 11:30:57;;;;;;;10.10;7.80;;;11.20;99.90;;;;;;5092636;28;20285;-66
2022/12/22 11:33:38;;;;;;;11.73;9.43;;;10.90;99.90;;;;;;5092933;28;20658;-66
2022/12/22 11:36:08;;;;;;;11.33;8.47;;;10.70;99.90;;;;;;5082197;28;20635;-66
2022/12/22 11:38:48;;;;;;;16.43;10.13;;;10.60;99.90;;;;;;5092674;28;20170;-66
2022/12/22 11:41:52;;;;;;;15.77;10.13;;;10.60;99.90;;;;;;5092563;28;20560;-66
2022/12/22 11:44:44;;;;;;;17.57;10.83;;;10.50;99.90;;;;;;5090522;28;20189;-66
2022/12/22 11:47:29;;;;;;;24.67;11.57;;;10.50;99.90;;;;;;5097714;28;20219;-66
2022/12/22 11:50:13;;;;;;;18.30;10.17;;;10.60;99.90;;;;;;5091396;28;20169;-66
2022/12/22 11:52:51;;;;;;;13.47;9.70;;;10.80;99.90;;;;;;5096422;28;20172;-66
2022/12/22 11:55:30;;;;;;;15.60;9.67;;;11.00;99.90;;;;;;5112744;28;20176;-66
2022/12/22 11:58:13;;;;;;;15.20;10.37;;;11.10;99.90;;;;;;5111973;28;20180;-66
2022/12/22 12:00:49;;;;;;;20.93;10.30;;;11.10;99.90;;;;;;5111351;28;20675;-66
2022/12/22 12:03:31;;;;;;;16.93;9.33;;;11.10;99.90;;;;;;5098784;28;20173;-66
2022/12/22 12:06:17;;;;;;;12.60;9.40;;;11.20;99.90;;;;;;5092443;28;20203;-66
2022/12/22 12:08:49;;;;;;;14.53;10.03;;;11.40;99.90;;;;;;5109276;28;20176;-66
2022/12/22 12:11:17;;;;;;;12.33;8.93;;;11.50;99.90;;;;;;5111522;28;20213;-66
2022/12/22 12:13:48;;;;;;;14.97;9.37;;;11.60;99.90;;;;;;5096358;28;20181;-66
2022/12/22 12:16:32;;;;;;;18.10;10.50;;;11.60;99.90;;;;;;5105076;28;20486;-66
2022/12/22 12:19:29;;;;;;;15.40;10.53;;;11.50;99.90;;;;;;5112126;28;20225;-66
2022/12/22 12:22:09;;;;;;;25.60;11.17;;;11.30;99.90;;;;;;5111346;28;20194;-66
2022/12/22 12:25:10;;;;;;;14.33;10.30;;;11.10;99.90;;;;;;5111844;28;20297;-66
2022/12/22 12:28:04;;;;;;;17.17;10.27;;;10.90;99.90;;;;;;5071517;28;20161;-66
2022/12/22 12:30:40;;;;;;;13.73;10.27;;;10.70;99.90;;;;;;5074354;28;20300;-65
2022/12/22 12:33:11;;;;;;;17.77;11.53;;;10.60;99.90;;;;;;5091893;28;20161;-66
2022/12/22 12:36:00;;;;;;;19.13;10.77;;;10.50;99.90;;;;;;5112240;28;20191;-66
2022/12/22 12:38:52;;;;;;;13.80;10.27;;;10.40;99.90;;;;;;5112084;28;20717;-65
2022/12/22 12:41:29;;;;;;;14.53;10.17;;;10.40;99.90;;;;;;5111906;28;20192;-65
2022/12/22 12:43:56;;;;;;;20.17;10.20;;;10.40;99.90;;;;;;5106130;28;20169;-65
2022/12/22 12:46:40;;;;;;;14.50;9.10;;;10.50;99.90;;;;;;5092208;28;20173;-65
2022/12/22 12:49:34;;;;;;;13.83;9.37;;;10.70;99.90;;;;;;5092619;28;20192;-65
2022/12/22 12:52:03;;;;;;;11.37;8.50;;;10.90;99.90;;;;;;5092262;28;20200;-65
2022/12/22 12:54:28;;;;;;;10.53;8.57;;;11.10;99.90;;;;;;5100923;28;20211;-66
2022/12/22 12:57:06;;;;;;;11.47;9.10;;;11.20;99.90;;;;;;5112206;28;20180;-65
2022/12/22 12:59:40;;;;;;;11.10;9.10;;;11.30;99.90;;;;;;5103114;28;20203;-66
2022/12/22 13:02:26;;;;;;;15.80;8.00;;;11.50;99.90;;;;;;5091870;28;20670;-66
2022/12/22 13:05:10;;;;;;;7.43;6.70;;;11.60;99.90;;;;;;5066338;28;20181;-66
2022/12/22 13:08:05;;;;;;;9.07;7.87;;;11.70;99.90;;;;;;5101739;28;20183;-65
2022/12/22 13:10:36;;;;;;;7.83;6.83;;;11.80;99.90;;;;;;5111496;28;20188;-65
2022/12/22 13:13:01;;;;;;;7.97;7.27;;;11.60;99.90;;;;;;5093802;28;20205;-65
2022/12/22 13:15:33;;;;;;;8.23;7.43;;;11.40;99.90;;;;;;5096652;28;20180;-64
2022/12/22 13:18:00;;;;;;;7.57;6.87;;;11.10;99.90;;;;;;5116518;28;20181;-65
2022/12/22 13:20:30;;;;;;;8.47;7.67;;;10.90;99.90;;;;;;5111174;28;20697;-65
2022/12/22 13:22:57;;;;;;;9.33;7.87;;;10.70;99.90;;;;;;5095253;28;20188;-66
2022/12/22 13:25:33;;;;;;;11.57;7.40;;;10.70;99.90;;;;;;5091320;28;20165;-66
2022/12/22 13:27:59;;;;;;;8.70;7.33;;;10.60;99.90;;;;;;5106991;28;20180;-65
2022/12/22 13:30:28;;;;;;;7.90;7.20;;;10.40;99.90;;;;;;5112502;28;20247;-66
2022/12/22 13:32:55;;;;;;;7.57;6.87;;;10.40;99.90;;;;;;5097445;28;20225;-66
2022/12/22 13:35:38;;;;;;;7.93;7.43;;;10.40;99.90;;;;;;5106324;28;20188;-66
2022/12/22 13:38:04;;;;;;;10.67;8.43;;;10.40;99.90;;;;;;5094905;28;20212;-66
2022/12/22 13:40:39;;;;;;;8.90;7.03;;;10.50;99.90;;;;;;5102599;28;20553;-66
2022/12/22 13:43:14;;;;;;;8.60;7.70;;;10.50;99.90;;;;;;5115236;28;20172;-65
2022/12/22 13:45:48;;;;;;;8.03;7.27;;;10.70;99.90;;;;;;5104454;28;20177;-67
2022/12/22 13:48:18;;;;;;;7.67;6.97;;;10.80;99.90;;;;;;5114940;28;20160;-66
2022/12/22 13:50:57;;;;;;;8.90;6.73;;;10.90;99.90;;;;;;5112727;28;20196;-66
2022/12/22 13:53:36;;;;;;;7.93;7.20;;;11.10;99.90;;;;;;5114950;28;20172;-66
2022/12/22 13:56:05;;;;;;;7.67;6.97;;;11.10;99.90;;;;;;5113023;28;20212;-66
2022/12/22 13:58:36;;;;;;;8.40;7.67;;;11.10;99.90;;;;;;5114630;28;20171;-66
2022/12/22 14:01:08;;;;;;;8.33;6.47;;;11.10;99.90;;;;;;5112828;28;20193;-66
2022/12/22 14:03:37;;;;;;;7.50;6.70;;;11.10;99.90;;;;;;5114891;28;20618;-66
2022/12/22 14:06:23;;;;;;;8.07;6.67;;;11.20;99.90;;;;;;5102937;28;20173;-66
2022/12/22 14:08:49;;;;;;;8.33;6.80;;;11.20;99.90;;;;;;5094418;28;20169;-66
2022/12/22 14:11:14;;;;;;;9.57;7.30;;;11.20;99.90;;;;;;5106052;28;20234;-65
2022/12/22 14:13:41;;;;;;;8.20;7.47;;;11.20;99.90;;;;;;5114323;28;20163;-64
2022/12/22 14:16:12;;;;;;;9.57;8.67;;;11.20;99.90;;;;;;5078298;28;20239;-66
2022/12/22 14:18:38;;;;;;;9.00;8.37;;;11.10;99.90;;;;;;5098052;28;20170;-66
2022/12/22 14:21:05;;;;;;;7.60;6.93;;;11.10;99.90;;;;;;5112892;28;20220;-65
2022/12/22 14:23:36;;;;;;;8.40;7.37;;;11.10;99.90;;;;;;5116755;28;20173;-65
2022/12/22 14:26:05;;;;;;;8.17;6.90;;;11.00;99.90;;;;;;5121355;28;20175;-65
2022/12/22 14:28:41;;;;;;;8.07;7.30;;;11.00;99.90;;;;;;5117427;28;20189;-65
2022/12/22 14:33:35;;;;;;;10.17;8.43;;;11.30;99.90;;;;;;5051632;28;20195;-64
2022/12/22 14:36:22;;;;;;;7.47;6.80;;;10.80;99.90;;;;;;5062119;28;20174;-64
2022/12/22 14:38:53;;;;;;;8.27;7.57;;;10.70;99.90;;;;;;5073351;28;20170;-64
2022/12/22 14:41:42;;;;;;;9.00;8.10;;;10.60;99.90;;;;;;5072100;28;20223;-63
2022/12/22 14:44:21;;;;;;;7.90;7.13;;;10.60;99.90;;;;;;5066710;28;20542;-64
2022/12/22 14:47:10;;;;;;;8.03;7.23;;;10.70;99.90;;;;;;5053403;28;20171;-64
2022/12/22 14:49:54;;;;;;;7.63;6.83;;;10.60;99.90;;;;;;5052338;28;20540;-63
2022/12/22 14:52:44;;;;;;;10.77;7.83;;;10.50;99.90;;;;;;5053191;28;20187;-64
2022/12/22 14:55:47;;;;;;;8.43;7.57;;;10.50;99.90;;;;;;5062461;28;20190;-64
2022/12/22 14:58:24;;;;;;;9.63;8.43;;;10.30;99.90;;;;;;5073240;28;20165;-64
2022/12/22 15:01:12;;;;;;;8.60;7.90;;;10.30;99.90;;;;;;5052881;28;20694;-64
2022/12/22 15:03:43;;;;;;;9.97;9.00;;;10.20;99.90;;;;;;5053187;28;20166;-64
2022/12/22 15:06:40;;;;;;;8.00;7.40;;;10.20;99.90;;;;;;5071304;28;20269;-64
2022/12/22 15:09:06;;;;;;;8.50;7.90;;;10.10;99.90;;;;;;5068536;28;20536;-64
2022/12/22 15:11:32;;;;;;;8.07;7.30;;;10.00;99.90;;;;;;5052251;28;20183;-63
2022/12/22 15:13:59;;;;;;;7.97;7.17;;;10.10;99.90;;;;;;5053784;28;20525;-64
2022/12/22 15:16:25;;;;;;;8.73;7.83;;;10.00;99.90;;;;;;5052544;28;20167;-64
2022/12/22 15:18:51;;;;;;;8.83;8.07;;;10.10;99.90;;;;;;5051175;28;20177;-62
2022/12/22 15:21:18;;;;;;;9.83;8.97;;;10.10;99.90;;;;;;5055965;28;20195;-64
2022/12/22 15:23:44;;;;;;;11.67;10.47;;;10.00;99.90;;;;;;5052300;28;20250;-64
2022/12/22 15:26:10;;;;;;;7.67;6.97;;;10.00;99.90;;;;;;5070838;28;20269;-64
2022/12/22 15:28:36;;;;;;;7.53;6.73;;;10.10;99.90;;;;;;5072194;28;20600;-64
2022/12/22 15:31:03;;;;;;;7.37;6.77;;;10.10;99.90;;;;;;5054652;28;20206;-64
2022/12/22 15:33:29;;;;;;;6.57;6.13;;;10.10;99.90;;;;;;5052158;28;20265;-64
2022/12/22 15:35:56;;;;;;;7.37;6.63;;;10.20;99.90;;;;;;5067129;28;20265;-64
2022/12/22 15:38:24;;;;;;;6.40;5.90;;;10.20;99.90;;;;;;5071018;28;20232;-64
2022/12/22 15:40:50;;;;;;;6.30;6.00;;;10.20;99.90;;;;;;5050684;28;20190;-64
2022/12/22 15:43:16;;;;;;;6.20;5.90;;;10.10;99.90;;;;;;5051955;28;20194;-64
2022/12/22 15:45:43;;;;;;;7.00;6.53;;;10.10;99.90;;;;;;5070771;28;20197;-64
2022/12/22 15:48:13;;;;;;;7.47;7.07;;;10.00;99.90;;;;;;5062344;28;20186;-64
2022/12/22 15:50:41;;;;;;;6.13;5.73;;;10.00;99.90;;;;;;5051560;28;20299;-63
2022/12/22 15:53:11;;;;;;;5.33;5.03;;;9.90;99.90;;;;;;5049471;28;20181;-63
2022/12/22 15:55:43;;;;;;;6.13;5.73;;;9.90;99.90;;;;;;5054558;28;20170;-64
2022/12/22 15:58:12;;;;;;;7.20;6.80;;;9.90;99.90;;;;;;5071574;28;20601;-64
2022/12/22 16:00:38;;;;;;;7.47;6.87;;;9.90;99.90;;;;;;5068224;28;20278;-64
2022/12/22 16:03:04;;;;;;;6.00;5.60;;;9.90;99.90;;;;;;5051828;28;20174;-64
2022/12/22 16:05:31;;;;;;;6.17;5.87;;;9.90;99.90;;;;;;5052226;28;20648;-64
2022/12/22 16:07:57;;;;;;;6.47;6.07;;;9.90;99.90;;;;;;5071774;28;20211;-63
2022/12/22 16:10:32;;;;;;;6.93;6.33;;;9.90;99.90;;;;;;5070999;28;20606;-64
2022/12/22 16:13:01;;;;;;;6.57;5.97;;;9.80;99.90;;;;;;5031740;28;20170;-64
2022/12/22 16:15:32;;;;;;;6.60;6.13;;;9.80;99.90;;;;;;5063723;28;20216;-64
2022/12/22 16:17:59;;;;;;;6.07;5.53;;;9.80;99.90;;;;;;5071523;28;20194;-63
2022/12/22 16:20:28;;;;;;;5.83;5.43;;;9.80;99.90;;;;;;5069338;28;20265;-64
2022/12/22 16:22:56;;;;;;;6.47;6.03;;;9.70;99.90;;;;;;5071589;28;20182;-64
2022/12/22 16:25:34;;;;;;;7.40;6.90;;;9.70;99.90;;;;;;5052494;28;20214;-63
2022/12/22 16:28:00;;;;;;;6.33;5.67;;;9.60;99.90;;;;;;5052575;28;20194;-64
2022/12/22 16:30:28;;;;;;;5.57;5.07;;;9.60;99.90;;;;;;5068941;28;20206;-64
2022/12/22 16:32:54;;;;;;;5.87;5.47;;;9.60;99.90;;;;;;5072342;28;20201;-64
2022/12/22 16:35:25;;;;;;;6.23;5.67;;;9.60;99.90;;;;;;5055789;28;20185;-64
2022/12/22 16:37:54;;;;;;;5.87;5.47;;;9.50;99.90;;;;;;5051210;28;20224;-64
2022/12/22 16:40:19;;;;;;;6.83;6.43;;;9.50;99.90;;;;;;5065451;28;20189;-65
2022/12/22 16:42:52;;;;;;;6.60;6.13;;;9.40;99.90;;;;;;5071326;28;20174;-65